Phenix City, AL (36867)

4:59 AM CDT on May 06, 2015 (GMT -0500)
Greenbriar Subdivision | | Change Station
CLOSE
Current Station
Personal Weather Station
Location: Phenix City, AL
Elevation: 374 ft
Nearby Weather Stations

Elev 374 ft 32.49 °N, 85.03 °W | Updated 4 minutes ago

Clear
Clear
53.9 °F
Feels Like 53.9 °F
N
0.0
Wind Variable Wind from North

Today
High -- | Low -- °F
--% Chance of Precip.
Yesterday
High -- | Low -- °F
Precip. -- in
5:49 AM 7:24 PM
Waning Gibbous, 95% visible
Pressure 30.17 in
Visibility 10.0 miles
Clouds Clear
Dew Point 52 °F
Humidity 94%
Rainfall 0.00 in
Snow Depth Not available.
UV 0 out of 12
Pollen 7.70 out of 12
Air Quality Not available.
Flu Activity Sporadic
METAR KCSG 060951Z AUTO 00000KT 10SM CLR 16/12 A3018 RMK AO2 SLP215 T01560122

More Conditions Fewer Conditions

Pressure 30.17 in
Visibility 10.0 miles
Clouds Clear
Dew Point 52 °F
Humidity 94%
Rainfall 0.00 in
Snow Depth Not available.
UV 0 out of 12
Pollen 7.70 out of 12
Air Quality Not available.
Flu Activity Sporadic
METAR KCSG 060951Z AUTO 00000KT 10SM CLR 16/12 A3018 RMK AO2 SLP215 T01560122

More Conditions Fewer Conditions

10-Day Weather Forecast

Almanac

Astronomy

May. 06, 2015 Rise Set
Actual Time
Civil Twilight
Nautical Twilight
Astronomical Twilight
Moon
Length of Visible Light
Length of Day
Tomorrow will be .
, % of the Moon is Illuminated

Today's Extremes

State Highs State Lows

Community

WunderPhotos

Upload Photos

1,818,859 photos uploaded!

WunderBlogs® & News

Nearby

Air Quality

  Air Quality AQ Index Pollutant
Not available.

Snow Depth

Station Depth Elevation

Earthquake Activity

City Distance Mag. Time & Date
Minimum magnitude displayed is 2.5.

Coastal Water Temperatures

Place Temperature

Stations

Nearby Weather Stations

Station Location Temp. Windchill Dew Point Humidity Wind Precip. Elev Updated Type